aviador You're here:

KMKG Decoded Metar

MUSKEGON in MI, USA
Report Time2017-08-22 02:55:00
UTC Time2017-08-22 03:26:23
Flight Rules vfr VFR
Wind190° at 09 kt
W.Decomp.*RWY 24: 6.3 kt HW 6.5 kt LCW
RWY 14: 5.3 kt HW 7.3 kt RCW
W.Rank190° ranks 3
Current wind is below 190° avg. (11.6)
Visibility9999 m
Phenomena:N/A
Clouds:Overcast 050 Hf
Expected CloudBase > 1,600 ft AGL from Temp-Dew spread
Ceiling5,000 ft
Temp25°C (ISA +11)
Dew Point21°C (79% RH)
QNH1013 hPa
Density Alt2,257 ft
Elevation627 ft
Report Wrong Elevation
Raw Report
METAR KMKG 220255Z 19009KT 10SM OVC050 25/21 A2992 RMK AO2 SLP127 LAST
T02500211 58019=

Extra information for KMKG:More info

Metar Taf Metar & Taf Last 4 Metars F.Rules Stats Wind Profile Meteogram Temp Stats Airport Information Weather charts Add Link Nearby VenuesMetar ALERT Operation Metar Decoded Social comments

AIRNAV info for KMKG